aviador You're here:

ZSHC Decoded Metar

HANGZHOU in CHINA
Report Time2017-03-23 02:00:00
UTC Time2017-03-23 02:15:37
Flight Rules mvfr MVFR
Wind350° at 8 kt
W.Decomp.*RWY 07: 1.9 kt HW 7.8 kt LCW
W.Rank350° ranks 10
Current wind is above 350° avg. (7.0)
Visibility5000 m
Phenomena:Mist
Clouds:Broken 011 Hf
Scattered 012 Hf
Broken 020 Hf
Expected CloudBase > 1,200 ft AGL from Temp-Dew spread
Ceiling1,100 ft
Temp11°C (ISA -4)
Dew Point08°C (82% RH)
AAT7.7°C
QNH1022 hPa
Density Alt-463 ft
Elevation141 ft
Report Wrong Elevation
Raw Report
ZSHC 230200Z 35004MPS 320V020 5000 BR BKN011 BKN020 11/08 Q1022
BECMG TL0300 SCT012 BKN020=

Extra information for ZSHC:More info

Metar Taf Metar & Taf Last 4 Metars F.Rules Stats Wind Profile Meteogram Temp Stats Airport Information Weather charts Add Link Nearby VenuesMetar ALERT Operation Metar Decoded Social comments